Conch Key, Florida
Current Conditions -  °F | °C
As of 12:53 AM on Saturday 20 Dec 2014 (Local Time) from KMTH Reporting Station
Few Clouds Few Clouds  
Wind Chill: 72°   Ceiling: Unl
Heat Index: 72°   Visibility: 10mi
Dew Point: 62°   Wind: 5mph
Humidity: 71%   Direction: 130°SE
Pressure: 30.04"   Gusts: NA
Location:  24.8241°N, 80.818°W
Report Text: KMTH 200553Z AUTO 13004KT 10SM FEW039 22/17 A3004 RMK AO2 SLP171 T02220167 10222 20200 58010
Loading
Personal Weather Stations






























Interactive Weather Map New forecast layout! Learn more

10-Day Weather Forecast

Advertisements
Track Severe Weather on mobile